sensor_id;sensor_type;location;lat;lon;timestamp;pressure;altitude;pressure_sealevel;temperature;humidity
55486;BME280;49383;-25.924;28.194;2023-06-24T00:00:46;85819.42;;;17.33;33.26
55486;BME280;49383;-25.924;28.194;2023-06-24T00:03:11;85820.18;;;17.34;33.26
55486;BME280;49383;-25.924;28.194;2023-06-24T00:05:37;85819.66;;;17.36;33.21
55486;BME280;49383;-25.924;28.194;2023-06-24T00:08:03;85821.17;;;17.38;33.17
55486;BME280;49383;-25.924;28.194;2023-06-24T00:10:30;85824.33;;;17.38;33.15
55486;BME280;49383;-25.924;28.194;2023-06-24T00:12:55;85828.10;;;17.32;33.21
55486;BME280;49383;-25.924;28.194;2023-06-24T00:15:20;85828.03;;;17.07;33.22
55486;BME280;49383;-25.924;28.194;2023-06-24T00:17:45;85826.40;;;17.27;33.23
55486;BME280;49383;-25.924;28.194;2023-06-24T00:20:11;85828.11;;;17.05;33.21
55486;BME280;49383;-25.924;28.194;2023-06-24T00:22:35;85825.28;;;17.29;33.17
55486;BME280;49383;-25.924;28.194;2023-06-24T00:25:00;85820.89;;;16.76;33.20
55486;BME280;49383;-25.924;28.194;2023-06-24T00:27:26;85819.86;;;16.80;33.14
55486;BME280;49383;-25.924;28.194;2023-06-24T00:29:52;85821.60;;;17.29;33.12
55486;BME280;49383;-25.924;28.194;2023-06-24T00:32:17;85820.19;;;17.28;33.12
55486;BME280;49383;-25.924;28.194;2023-06-24T00:34:42;85819.03;;;17.07;33.10
55486;BME280;49383;-25.924;28.194;2023-06-24T00:37:07;85816.18;;;17.30;33.08
55486;BME280;49383;-25.924;28.194;2023-06-24T00:39:33;85814.86;;;17.09;33.04
55486;BME280;49383;-25.924;28.194;2023-06-24T00:41:58;85817.51;;;16.84;33.01
55486;BME280;49383;-25.924;28.194;2023-06-24T00:44:24;85818.96;;;17.05;33.07
55486;BME280;49383;-25.924;28.194;2023-06-24T00:46:49;85818.02;;;17.30;33.02
55486;BME280;49383;-25.924;28.194;2023-06-24T00:49:15;85814.20;;;17.01;33.08
55486;BME280;49383;-25.924;28.194;2023-06-24T00:51:41;85813.53;;;17.24;33.06
55486;BME280;49383;-25.924;28.194;2023-06-24T00:54:06;85809.58;;;17.30;33.00
55486;BME280;49383;-25.924;28.194;2023-06-24T00:56:34;85804.76;;;17.02;33.02
55486;BME280;49383;-25.924;28.194;2023-06-24T00:58:58;85806.83;;;17.29;32.97
55486;BME280;49383;-25.924;28.194;2023-06-24T01:01:24;85801.32;;;17.18;33.07
55486;BME280;49383;-25.924;28.194;2023-06-24T01:03:49;85799.47;;;17.18;33.07
55486;BME280;49383;-25.924;28.194;2023-06-24T01:06:14;85797.59;;;17.03;32.97
55486;BME280;49383;-25.924;28.194;2023-06-24T01:08:39;85794.53;;;16.95;33.04
55486;BME280;49383;-25.924;28.194;2023-06-24T01:11:04;85794.86;;;16.97;33.02
55486;BME280;49383;-25.924;28.194;2023-06-24T01:13:30;85795.39;;;16.89;33.09
55486;BME280;49383;-25.924;28.194;2023-06-24T01:15:56;85794.41;;;17.17;33.02
55486;BME280;49383;-25.924;28.194;2023-06-24T01:18:24;85793.87;;;16.99;32.95
55486;BME280;49383;-25.924;28.194;2023-06-24T01:20:52;85793.24;;;16.99;32.94
55486;BME280;49383;-25.924;28.194;2023-06-24T01:25:53;85789.79;;;17.15;32.99
55486;BME280;49383;-25.924;28.194;2023-06-24T01:28:19;85788.47;;;17.14;32.99
55486;BME280;49383;-25.924;28.194;2023-06-24T01:30:39;85785.06;;;16.93;32.97
55486;BME280;49383;-25.924;28.194;2023-06-24T01:32:56;85783.75;;;17.15;32.97
55486;BME280;49383;-25.924;28.194;2023-06-24T01:35:23;85781.60;;;17.15;32.96
55486;BME280;49383;-25.924;28.194;2023-06-24T01:37:47;85785.73;;;17.14;32.98
55486;BME280;49383;-25.924;28.194;2023-06-24T01:40:13;85785.51;;;16.95;32.92
55486;BME280;49383;-25.924;28.194;2023-06-24T01:42:38;85790.14;;;17.11;32.97
55486;BME280;49383;-25.924;28.194;2023-06-24T01:45:02;85788.28;;;17.12;32.94
55486;BME280;49383;-25.924;28.194;2023-06-24T01:47:28;85785.97;;;17.17;32.88
55486;BME280;49383;-25.924;28.194;2023-06-24T01:49:54;85783.90;;;17.14;32.90
55486;BME280;49383;-25.924;28.194;2023-06-24T01:52:18;85785.58;;;17.10;32.92
55486;BME280;49383;-25.924;28.194;2023-06-24T01:54:45;85784.94;;;17.13;32.88
55486;BME280;49383;-25.924;28.194;2023-06-24T01:57:10;85784.27;;;17.08;32.93
55486;BME280;49383;-25.924;28.194;2023-06-24T01:59:39;85784.83;;;17.08;32.91
55486;BME280;49383;-25.924;28.194;2023-06-24T02:02:01;85782.31;;;17.15;32.81
55486;BME280;49383;-25.924;28.194;2023-06-24T02:04:26;85779.45;;;17.13;32.82
55486;BME280;49383;-25.924;28.194;2023-06-24T02:06:52;85780.16;;;17.13;32.81
55486;BME280;49383;-25.924;28.194;2023-06-24T02:09:18;85776.46;;;16.87;32.83
55486;BME280;49383;-25.924;28.194;2023-06-24T02:11:42;85774.87;;;17.07;32.84
55486;BME280;49383;-25.924;28.194;2023-06-24T02:14:08;85772.58;;;17.04;32.87
55486;BME280;49383;-25.924;28.194;2023-06-24T02:16:33;85771.27;;;17.05;32.84
55486;BME280;49383;-25.924;28.194;2023-06-24T02:18:58;85772.07;;;17.09;32.78
55486;BME280;49383;-25.924;28.194;2023-06-24T02:21:24;85771.90;;;16.87;32.77
55486;BME280;49383;-25.924;28.194;2023-06-24T02:23:49;85774.00;;;17.07;32.78
55486;BME280;49383;-25.924;28.194;2023-06-24T02:26:16;85771.39;;;17.14;32.68
55486;BME280;49383;-25.924;28.194;2023-06-24T02:28:41;85770.96;;;17.06;32.76
55486;BME280;49383;-25.924;28.194;2023-06-24T02:31:06;85767.22;;;16.85;32.72
55486;BME280;49383;-25.924;28.194;2023-06-24T02:33:31;85764.93;;;16.77;32.80
55486;BME280;49383;-25.924;28.194;2023-06-24T02:35:56;85764.70;;;17.05;32.72
55486;BME280;49383;-25.924;28.194;2023-06-24T02:38:21;85764.66;;;17.06;32.68
55486;BME280;49383;-25.924;28.194;2023-06-24T02:40:47;85763.44;;;16.90;32.61
55486;BME280;49383;-25.924;28.194;2023-06-24T02:43:13;85760.24;;;17.02;32.70
55486;BME280;49383;-25.924;28.194;2023-06-24T02:45:38;85758.85;;;17.06;32.62
55486;BME280;49383;-25.924;28.194;2023-06-24T02:48:05;85758.08;;;17.07;32.58
55486;BME280;49383;-25.924;28.194;2023-06-24T02:50:29;85759.32;;;17.06;32.58
55486;BME280;49383;-25.924;28.194;2023-06-24T02:52:55;85758.55;;;17.05;32.55
55486;BME280;49383;-25.924;28.194;2023-06-24T02:55:21;85757.20;;;16.97;32.63
55486;BME280;49383;-25.924;28.194;2023-06-24T02:57:46;85757.75;;;16.99;32.60
55486;BME280;49383;-25.924;28.194;2023-06-24T03:00:11;85757.33;;;16.95;32.62
55486;BME280;49383;-25.924;28.194;2023-06-24T03:02:37;85757.93;;;16.93;32.63
55486;BME280;49383;-25.924;28.194;2023-06-24T03:05:03;85762.63;;;16.97;32.58
55486;BME280;49383;-25.924;28.194;2023-06-24T03:07:27;85762.98;;;17.01;32.53
55486;BME280;49383;-25.924;28.194;2023-06-24T03:09:53;85764.72;;;16.94;32.58
55486;BME280;49383;-25.924;28.194;2023-06-24T03:12:18;85768.21;;;16.95;32.56
55486;BME280;49383;-25.924;28.194;2023-06-24T03:14:44;85767.65;;;17.02;32.46
55486;BME280;49383;-25.924;28.194;2023-06-24T03:17:09;85768.36;;;16.92;32.57
55486;BME280;49383;-25.924;28.194;2023-06-24T03:19:35;85766.68;;;17.12;32.57
55486;BME280;49383;-25.924;28.194;2023-06-24T03:22:00;85766.02;;;16.69;32.54
55486;BME280;49383;-25.924;28.194;2023-06-24T03:24:26;85764.60;;;16.91;32.52
55486;BME280;49383;-25.924;28.194;2023-06-24T03:26:52;85764.61;;;16.91;32.52
55486;BME280;49383;-25.924;28.194;2023-06-24T03:29:17;85762.95;;;16.95;32.47
55486;BME280;49383;-25.924;28.194;2023-06-24T03:31:43;85763.93;;;16.94;32.47
55486;BME280;49383;-25.924;28.194;2023-06-24T03:34:09;85768.69;;;16.94;32.46
55486;BME280;49383;-25.924;28.194;2023-06-24T03:36:34;85770.82;;;16.87;32.53
55486;BME280;49383;-25.924;28.194;2023-06-24T03:38:59;85775.19;;;16.93;32.46
55486;BME280;49383;-25.924;28.194;2023-06-24T03:41:24;85776.39;;;16.88;32.50
55486;BME280;49383;-25.924;28.194;2023-06-24T03:43:50;85777.27;;;16.87;32.52
55486;BME280;49383;-25.924;28.194;2023-06-24T03:46:15;85775.34;;;16.89;32.50
55486;BME280;49383;-25.924;28.194;2023-06-24T03:48:41;85777.90;;;16.85;32.52
55486;BME280;49383;-25.924;28.194;2023-06-24T03:51:06;85776.49;;;16.81;32.56
55486;BME280;49383;-25.924;28.194;2023-06-24T03:53:32;85779.50;;;16.61;32.52
55486;BME280;49383;-25.924;28.194;2023-06-24T03:55:57;85778.95;;;16.85;32.50
55486;BME280;49383;-25.924;28.194;2023-06-24T03:58:23;85779.56;;;16.86;32.46
55486;BME280;49383;-25.924;28.194;2023-06-24T04:00:49;85778.16;;;16.85;32.46
55486;BME280;49383;-25.924;28.194;2023-06-24T04:03:15;85780.64;;;16.85;32.47
55486;BME280;49383;-25.924;28.194;2023-06-24T04:05:40;85783.35;;;16.81;32.48
55486;BME280;49383;-25.924;28.194;2023-06-24T04:08:05;85783.90;;;16.90;32.38
55486;BME280;49383;-25.924;28.194;2023-06-24T04:10:30;85784.41;;;16.84;32.45
55486;BME280;49383;-25.924;28.194;2023-06-24T04:12:55;85787.75;;;16.80;32.48
55486;BME280;49383;-25.924;28.194;2023-06-24T04:15:21;85789.08;;;16.88;32.38
55486;BME280;49383;-25.924;28.194;2023-06-24T04:17:47;85789.66;;;16.61;32.42
55486;BME280;49383;-25.924;28.194;2023-06-24T04:20:12;85793.03;;;16.61;32.39
55486;BME280;49383;-25.924;28.194;2023-06-24T04:22:39;85799.52;;;16.79;32.43
55486;BME280;49383;-25.924;28.194;2023-06-24T04:25:04;85801.43;;;17.04;32.38
55486;BME280;49383;-25.924;28.194;2023-06-24T04:27:29;85799.42;;;16.86;32.32
55486;BME280;49383;-25.924;28.194;2023-06-24T04:29:54;85799.58;;;16.97;32.19
55486;BME280;49383;-25.924;28.194;2023-06-24T04:32:20;85798.36;;;16.95;32.19
55486;BME280;49383;-25.924;28.194;2023-06-24T04:34:46;85797.53;;;16.91;32.22
55486;BME280;49383;-25.924;28.194;2023-06-24T04:37:11;85796.01;;;16.96;32.14
55486;BME280;49383;-25.924;28.194;2023-06-24T04:39:36;85798.45;;;16.89;32.20
55486;BME280;49383;-25.924;28.194;2023-06-24T04:42:02;85801.20;;;16.64;32.22
55486;BME280;49383;-25.924;28.194;2023-06-24T04:44:28;85801.95;;;16.87;32.19
55486;BME280;49383;-25.924;28.194;2023-06-24T04:46:53;85804.34;;;16.81;32.24
55486;BME280;49383;-25.924;28.194;2023-06-24T04:49:18;85807.84;;;16.81;32.24
55486;BME280;49383;-25.924;28.194;2023-06-24T04:51:44;85808.65;;;16.73;32.31
55486;BME280;49383;-25.924;28.194;2023-06-24T04:54:09;85809.40;;;16.69;32.34
55486;BME280;49383;-25.924;28.194;2023-06-24T04:56:35;85814.32;;;16.69;32.33
55486;BME280;49383;-25.924;28.194;2023-06-24T04:59:00;85813.41;;;16.69;32.30
55486;BME280;49383;-25.924;28.194;2023-06-24T05:01:25;85814.50;;;16.68;32.30
55486;BME280;49383;-25.924;28.194;2023-06-24T05:03:50;85814.67;;;16.53;32.22
55486;BME280;49383;-25.924;28.194;2023-06-24T05:06:16;85816.46;;;16.73;32.22
55486;BME280;49383;-25.924;28.194;2023-06-24T05:08:41;85819.85;;;16.74;32.21
55486;BME280;49383;-25.924;28.194;2023-06-24T05:11:07;85821.56;;;16.74;32.18
55486;BME280;49383;-25.924;28.194;2023-06-24T05:13:33;85823.38;;;16.74;32.18
55486;BME280;49383;-25.924;28.194;2023-06-24T05:15:58;85826.93;;;16.89;32.26
55486;BME280;49383;-25.924;28.194;2023-06-24T05:18:24;85826.33;;;16.69;32.23
55486;BME280;49383;-25.924;28.194;2023-06-24T05:20:49;85826.50;;;16.69;32.24
55486;BME280;49383;-25.924;28.194;2023-06-24T05:23:14;85829.64;;;16.65;32.29
55486;BME280;49383;-25.924;28.194;2023-06-24T05:25:39;85827.06;;;16.67;32.31
55486;BME280;49383;-25.924;28.194;2023-06-24T05:28:04;85826.13;;;16.67;32.33
55486;BME280;49383;-25.924;28.194;2023-06-24T05:30:30;85827.41;;;16.79;32.22
55486;BME280;49383;-25.924;28.194;2023-06-24T05:32:55;85827.32;;;16.60;32.23
55486;BME280;49383;-25.924;28.194;2023-06-24T05:35:21;85830.60;;;16.89;32.19
55486;BME280;49383;-25.924;28.194;2023-06-24T05:37:46;85834.17;;;16.48;32.15
55486;BME280;49383;-25.924;28.194;2023-06-24T05:40:12;85831.58;;;16.82;32.12
55486;BME280;49383;-25.924;28.194;2023-06-24T05:42:37;85827.85;;;16.69;32.00
55486;BME280;49383;-25.924;28.194;2023-06-24T05:45:03;85828.64;;;17.19;32.03
55486;BME280;49383;-25.924;28.194;2023-06-24T05:47:27;85829.30;;;17.16;32.10
55486;BME280;49383;-25.924;28.194;2023-06-24T05:49:52;85829.95;;;16.91;32.18
55486;BME280;49383;-25.924;28.194;2023-06-24T05:52:18;85830.00;;;17.06;32.07
55486;BME280;49383;-25.924;28.194;2023-06-24T05:54:43;85829.21;;;17.21;31.95
55486;BME280;49383;-25.924;28.194;2023-06-24T05:57:10;85827.11;;;17.02;31.91
55486;BME280;49383;-25.924;28.194;2023-06-24T05:59:34;85832.28;;;17.53;31.66
55486;BME280;49383;-25.924;28.194;2023-06-24T06:02:00;85837.03;;;17.51;31.44
55486;BME280;49383;-25.924;28.194;2023-06-24T06:04:25;85835.15;;;17.50;31.26
55486;BME280;49383;-25.924;28.194;2023-06-24T06:06:50;85834.97;;;18.02;30.92
55486;BME280;49383;-25.924;28.194;2023-06-24T06:09:16;85835.14;;;18.46;30.50
55486;BME280;49383;-25.924;28.194;2023-06-24T06:11:41;85835.71;;;18.40;30.34
55486;BME280;49383;-25.924;28.194;2023-06-24T06:14:06;85836.81;;;18.47;30.04
55486;BME280;49383;-25.924;28.194;2023-06-24T06:16:31;85837.12;;;18.60;29.92
55486;BME280;49383;-25.924;28.194;2023-06-24T06:18:57;85839.15;;;18.57;29.73
55486;BME280;49383;-25.924;28.194;2023-06-24T06:21:23;85835.75;;;18.76;29.58
55486;BME280;49383;-25.924;28.194;2023-06-24T06:23:47;85838.40;;;18.80;29.33
55486;BME280;49383;-25.924;28.194;2023-06-24T06:26:12;85843.98;;;18.85;29.29
55486;BME280;49383;-25.924;28.194;2023-06-24T06:28:38;85845.02;;;18.63;29.28
55486;BME280;49383;-25.924;28.194;2023-06-24T06:31:03;85848.94;;;18.90;29.30
55486;BME280;49383;-25.924;28.194;2023-06-24T06:33:29;85849.77;;;18.84;29.10
55486;BME280;49383;-25.924;28.194;2023-06-24T06:35:55;85852.11;;;19.11;29.11
55486;BME280;49383;-25.924;28.194;2023-06-24T06:38:20;85851.41;;;19.27;29.02
55486;BME280;49383;-25.924;28.194;2023-06-24T06:40:45;85854.14;;;18.91;29.13
55486;BME280;49383;-25.924;28.194;2023-06-24T06:43:11;85859.26;;;18.96;29.14
55486;BME280;49383;-25.924;28.194;2023-06-24T06:45:37;85861.94;;;19.00;29.12
55486;BME280;49383;-25.924;28.194;2023-06-24T06:48:03;85857.73;;;19.39;29.04
55486;BME280;49383;-25.924;28.194;2023-06-24T06:50:28;85859.08;;;19.41;29.07
55486;BME280;49383;-25.924;28.194;2023-06-24T06:52:54;85863.23;;;19.42;29.09
55486;BME280;49383;-25.924;28.194;2023-06-24T06:55:19;85863.20;;;19.55;29.02
55486;BME280;49383;-25.924;28.194;2023-06-24T06:57:45;85864.34;;;19.62;29.02
55486;BME280;49383;-25.924;28.194;2023-06-24T07:00:11;85866.00;;;19.19;29.01
55486;BME280;49383;-25.924;28.194;2023-06-24T07:02:36;85867.93;;;19.62;29.09
55486;BME280;49383;-25.924;28.194;2023-06-24T07:05:02;85873.83;;;19.23;29.06
55486;BME280;49383;-25.924;28.194;2023-06-24T07:07:27;85876.47;;;19.29;29.07
55486;BME280;49383;-25.924;28.194;2023-06-24T07:09:53;85877.58;;;19.23;29.17
55486;BME280;49383;-25.924;28.194;2023-06-24T07:12:18;85876.57;;;19.55;29.12
55486;BME280;49383;-25.924;28.194;2023-06-24T07:14:44;85878.68;;;19.69;29.06
55486;BME280;49383;-25.924;28.194;2023-06-24T07:17:09;85879.88;;;19.52;29.02
55486;BME280;49383;-25.924;28.194;2023-06-24T07:19:34;85880.80;;;19.53;29.10
55486;BME280;49383;-25.924;28.194;2023-06-24T07:22:00;85880.04;;;19.52;29.15
55486;BME280;49383;-25.924;28.194;2023-06-24T07:24:25;85878.95;;;19.79;29.15
55486;BME280;49383;-25.924;28.194;2023-06-24T07:26:50;85880.37;;;19.89;29.12
55486;BME280;49383;-25.924;28.194;2023-06-24T07:29:16;85879.31;;;19.69;29.15
55486;BME280;49383;-25.924;28.194;2023-06-24T07:31:41;85878.38;;;19.81;29.07
55486;BME280;49383;-25.924;28.194;2023-06-24T07:34:07;85879.95;;;19.80;29.15
55486;BME280;49383;-25.924;28.194;2023-06-24T07:36:33;85879.76;;;19.61;29.13
55486;BME280;49383;-25.924;28.194;2023-06-24T07:38:58;85884.13;;;19.75;29.29
55486;BME280;49383;-25.924;28.194;2023-06-24T07:41:23;85884.09;;;19.78;29.32
55486;BME280;49383;-25.924;28.194;2023-06-24T07:43:49;85885.03;;;19.97;29.15
55486;BME280;49383;-25.924;28.194;2023-06-24T07:46:15;85887.03;;;20.11;29.10
55486;BME280;49383;-25.924;28.194;2023-06-24T07:48:40;85887.21;;;20.04;29.19
55486;BME280;49383;-25.924;28.194;2023-06-24T07:51:06;85889.85;;;20.06;29.25
55486;BME280;49383;-25.924;28.194;2023-06-24T07:53:31;85887.85;;;20.04;29.31
55486;BME280;49383;-25.924;28.194;2023-06-24T07:55:56;85888.90;;;20.18;29.23
55486;BME280;49383;-25.924;28.194;2023-06-24T07:58:22;85885.85;;;20.09;29.34
55486;BME280;49383;-25.924;28.194;2023-06-24T08:00:47;85887.41;;;20.16;29.32
55486;BME280;49383;-25.924;28.194;2023-06-24T08:03:13;85886.77;;;19.61;29.40
55486;BME280;49383;-25.924;28.194;2023-06-24T08:05:38;85885.07;;;20.24;29.32
55486;BME280;49383;-25.924;28.194;2023-06-24T08:08:03;85884.30;;;20.09;29.28
55486;BME280;49383;-25.924;28.194;2023-06-24T08:10:29;85883.44;;;20.29;29.34
55486;BME280;49383;-25.924;28.194;2023-06-24T08:12:54;85880.10;;;19.82;29.34
55486;BME280;49383;-25.924;28.194;2023-06-24T08:15:20;85879.18;;;20.13;29.35
55486;BME280;49383;-25.924;28.194;2023-06-24T08:17:51;85877.39;;;20.41;29.30
55486;BME280;49383;-25.924;28.194;2023-06-24T08:20:11;85877.78;;;20.29;29.25
55486;BME280;49383;-25.924;28.194;2023-06-24T08:22:36;85878.25;;;20.31;29.20
55486;BME280;49383;-25.924;28.194;2023-06-24T08:25:02;85878.82;;;20.34;29.25
55486;BME280;49383;-25.924;28.194;2023-06-24T08:27:27;85880.42;;;20.56;29.29
55486;BME280;49383;-25.924;28.194;2023-06-24T08:29:53;85879.81;;;20.46;29.42
55486;BME280;49383;-25.924;28.194;2023-06-24T08:32:18;85877.99;;;20.55;29.33
55486;BME280;49383;-25.924;28.194;2023-06-24T08:34:43;85876.76;;;20.63;29.35
55486;BME280;49383;-25.924;28.194;2023-06-24T08:37:09;85875.31;;;20.38;29.35
55486;BME280;49383;-25.924;28.194;2023-06-24T08:39:34;85874.83;;;20.46;29.30
55486;BME280;49383;-25.924;28.194;2023-06-24T08:42:00;85871.57;;;20.48;29.32
55486;BME280;49383;-25.924;28.194;2023-06-24T08:44:25;85870.27;;;20.48;29.32
55486;BME280;49383;-25.924;28.194;2023-06-24T08:46:51;85870.11;;;20.72;29.34
55486;BME280;49383;-25.924;28.194;2023-06-24T08:49:24;85871.43;;;20.42;29.41
55486;BME280;49383;-25.924;28.194;2023-06-24T08:51:42;85865.99;;;20.50;29.38
55486;BME280;49383;-25.924;28.194;2023-06-24T08:54:09;85866.79;;;20.46;29.44
55486;BME280;49383;-25.924;28.194;2023-06-24T08:56:32;85865.34;;;20.81;29.31
55486;BME280;49383;-25.924;28.194;2023-06-24T08:58:58;85866.91;;;20.65;29.28
55486;BME280;49383;-25.924;28.194;2023-06-24T09:01:23;85865.56;;;20.63;29.30
55486;BME280;49383;-25.924;28.194;2023-06-24T09:03:48;85864.62;;;20.61;29.31
55486;BME280;49383;-25.924;28.194;2023-06-24T09:06:14;85863.11;;;20.78;29.38
55486;BME280;49383;-25.924;28.194;2023-06-24T09:08:39;85859.30;;;20.89;29.29
55486;BME280;49383;-25.924;28.194;2023-06-24T09:11:04;85853.46;;;20.84;29.35
55486;BME280;49383;-25.924;28.194;2023-06-24T09:13:34;85852.68;;;20.31;29.38
55486;BME280;49383;-25.924;28.194;2023-06-24T09:15:58;85852.90;;;20.88;29.33
55486;BME280;49383;-25.924;28.194;2023-06-24T09:18:20;85852.86;;;20.70;29.26
55486;BME280;49383;-25.924;28.194;2023-06-24T09:20:46;85849.03;;;20.65;29.34
55486;BME280;49383;-25.924;28.194;2023-06-24T09:23:11;85848.15;;;20.74;29.22
55486;BME280;49383;-25.924;28.194;2023-06-24T09:25:36;85844.60;;;20.75;29.21
55486;BME280;49383;-25.924;28.194;2023-06-24T09:28:02;85843.38;;;20.60;29.10
55486;BME280;49383;-25.924;28.194;2023-06-24T09:30:27;85838.77;;;20.78;29.18
55486;BME280;49383;-25.924;28.194;2023-06-24T09:32:53;85835.29;;;20.98;29.17
55486;BME280;49383;-25.924;28.194;2023-06-24T09:35:19;85830.34;;;20.93;29.01
55486;BME280;49383;-25.924;28.194;2023-06-24T09:37:45;85824.64;;;20.72;28.94
55486;BME280;49383;-25.924;28.194;2023-06-24T09:40:09;85821.19;;;20.98;28.94
55486;BME280;49383;-25.924;28.194;2023-06-24T09:42:34;85820.77;;;20.70;28.94
55486;BME280;49383;-25.924;28.194;2023-06-24T09:45:04;85815.35;;;21.05;29.12
55486;BME280;49383;-25.924;28.194;2023-06-24T09:47:25;85810.26;;;20.85;29.00
55486;BME280;49383;-25.924;28.194;2023-06-24T09:49:50;85806.16;;;20.96;28.88
55486;BME280;49383;-25.924;28.194;2023-06-24T09:52:15;85800.62;;;20.88;28.94
55486;BME280;49383;-25.924;28.194;2023-06-24T09:54:41;85795.73;;;21.11;28.92
55486;BME280;49383;-25.924;28.194;2023-06-24T09:57:07;85794.46;;;21.05;28.94
55486;BME280;49383;-25.924;28.194;2023-06-24T09:59:32;85788.49;;;20.79;28.97
55486;BME280;49383;-25.924;28.194;2023-06-24T10:01:58;85788.50;;;21.21;28.96
55486;BME280;49383;-25.924;28.194;2023-06-24T10:04:22;85782.28;;;20.82;29.10
55486;BME280;49383;-25.924;28.194;2023-06-24T10:06:48;85780.38;;;20.83;29.05
55486;BME280;49383;-25.924;28.194;2023-06-24T10:09:14;85777.12;;;20.66;29.21
55486;BME280;49383;-25.924;28.194;2023-06-24T10:11:39;85770.60;;;20.72;29.13
55486;BME280;49383;-25.924;28.194;2023-06-24T10:14:04;85767.08;;;20.56;29.26
55486;BME280;49383;-25.924;28.194;2023-06-24T10:16:30;85763.03;;;20.82;29.20
55486;BME280;49383;-25.924;28.194;2023-06-24T10:19:01;85762.02;;;20.31;29.45
55486;BME280;49383;-25.924;28.194;2023-06-24T10:21:21;85761.31;;;20.51;29.45
55486;BME280;49383;-25.924;28.194;2023-06-24T10:23:52;85755.01;;;20.46;29.46
55486;BME280;49383;-25.924;28.194;2023-06-24T10:31:02;85745.82;;;20.39;29.71
55486;BME280;49383;-25.924;28.194;2023-06-24T10:33:29;85743.92;;;20.26;29.79
55486;BME280;49383;-25.924;28.194;2023-06-24T10:35:54;85740.92;;;20.17;29.85
55486;BME280;49383;-25.924;28.194;2023-06-24T10:38:19;85732.35;;;20.16;29.81
55486;BME280;49383;-25.924;28.194;2023-06-24T10:40:45;85732.61;;;19.93;30.00
55486;BME280;49383;-25.924;28.194;2023-06-24T10:45:36;85727.69;;;19.91;29.97
55486;BME280;49383;-25.924;28.194;2023-06-24T10:48:00;85724.71;;;19.81;30.02
55486;BME280;49383;-25.924;28.194;2023-06-24T10:50:25;85720.56;;;19.69;30.10
55486;BME280;49383;-25.924;28.194;2023-06-24T10:52:52;85719.31;;;19.69;30.05
55486;BME280;49383;-25.924;28.194;2023-06-24T10:55:17;85716.24;;;20.06;30.07
55486;BME280;49383;-25.924;28.194;2023-06-24T10:57:43;85713.12;;;19.58;30.08
55486;BME280;49383;-25.924;28.194;2023-06-24T11:00:09;85710.75;;;19.54;30.08
55486;BME280;49383;-25.924;28.194;2023-06-24T11:02:33;85704.56;;;19.72;30.08
55486;BME280;49383;-25.924;28.194;2023-06-24T11:05:00;85703.00;;;19.67;30.10
55486;BME280;49383;-25.924;28.194;2023-06-24T11:07:24;85698.99;;;19.83;30.13
55486;BME280;49383;-25.924;28.194;2023-06-24T11:09:51;85691.82;;;19.75;30.16
55486;BME280;49383;-25.924;28.194;2023-06-24T11:12:14;85687.04;;;19.22;30.20
55486;BME280;49383;-25.924;28.194;2023-06-24T11:14:39;85681.14;;;19.65;30.16
55486;BME280;49383;-25.924;28.194;2023-06-24T11:17:04;85677.35;;;19.32;30.22
55486;BME280;49383;-25.924;28.194;2023-06-24T11:19:30;85674.49;;;19.34;30.17
55486;BME280;49383;-25.924;28.194;2023-06-24T11:21:59;85669.57;;;19.35;30.12
55486;BME280;49383;-25.924;28.194;2023-06-24T11:24:20;85665.89;;;19.50;30.15
55486;BME280;49383;-25.924;28.194;2023-06-24T11:26:46;85662.74;;;19.54;30.06
55486;BME280;49383;-25.924;28.194;2023-06-24T11:29:12;85657.29;;;19.45;30.11
55486;BME280;49383;-25.924;28.194;2023-06-24T11:31:36;85655.28;;;19.44;30.07
55486;BME280;49383;-25.924;28.194;2023-06-24T11:34:02;85650.76;;;19.39;30.07
55486;BME280;49383;-25.924;28.194;2023-06-24T11:36:27;85648.29;;;19.44;30.00
55486;BME280;49383;-25.924;28.194;2023-06-24T11:38:52;85647.43;;;19.36;30.02
55486;BME280;49383;-25.924;28.194;2023-06-24T11:41:21;85643.61;;;19.35;29.97
55486;BME280;49383;-25.924;28.194;2023-06-24T11:43:45;85641.63;;;19.10;29.96
55486;BME280;49383;-25.924;28.194;2023-06-24T11:46:08;85638.41;;;19.31;29.92
55486;BME280;49383;-25.924;28.194;2023-06-24T11:48:39;85637.49;;;19.27;29.92
55486;BME280;49383;-25.924;28.194;2023-06-24T11:50:58;85638.95;;;19.26;29.91
55486;BME280;49383;-25.924;28.194;2023-06-24T11:53:29;85632.15;;;19.22;29.89
55486;BME280;49383;-25.924;28.194;2023-06-24T11:55:52;85632.48;;;19.30;29.76
55486;BME280;49383;-25.924;28.194;2023-06-24T11:58:19;85633.51;;;19.23;29.79
55486;BME280;49383;-25.924;28.194;2023-06-24T12:00:40;85631.55;;;19.16;29.82
55486;BME280;49383;-25.924;28.194;2023-06-24T12:03:05;85625.79;;;19.47;29.74
55486;BME280;49383;-25.924;28.194;2023-06-24T12:05:30;85620.51;;;19.20;29.69
55486;BME280;49383;-25.924;28.194;2023-06-24T12:07:56;85614.90;;;19.24;29.60
55486;BME280;49383;-25.924;28.194;2023-06-24T12:10:25;85612.48;;;19.18;29.62
55486;BME280;49383;-25.924;28.194;2023-06-24T12:12:45;85613.91;;;19.44;29.58
55486;BME280;49383;-25.924;28.194;2023-06-24T12:15:10;85614.21;;;19.10;29.62
55486;BME280;49383;-25.924;28.194;2023-06-24T12:17:35;85612.98;;;19.15;29.53
55486;BME280;49383;-25.924;28.194;2023-06-24T12:20:00;85608.31;;;19.11;29.51
55486;BME280;49383;-25.924;28.194;2023-06-24T12:22:26;85608.04;;;19.17;29.43
55486;BME280;49383;-25.924;28.194;2023-06-24T12:24:51;85603.25;;;19.07;29.45
55486;BME280;49383;-25.924;28.194;2023-06-24T12:27:16;85602.79;;;19.39;29.36
55486;BME280;49383;-25.924;28.194;2023-06-24T12:29:41;85598.11;;;19.32;29.37
55486;BME280;49383;-25.924;28.194;2023-06-24T12:32:08;85595.98;;;19.06;29.35
55486;BME280;49383;-25.924;28.194;2023-06-24T12:34:32;85596.95;;;19.15;29.23
55486;BME280;49383;-25.924;28.194;2023-06-24T12:36:57;85593.61;;;19.14;29.20
55486;BME280;49383;-25.924;28.194;2023-06-24T12:39:22;85592.61;;;19.58;29.18